createdAt,value
2022-12-08T00:00:48.681Z,25.10
2022-12-08T00:03:15.448Z,21.55
2022-12-08T00:06:07.913Z,25.63
2022-12-08T00:08:53.242Z,25.50
2022-12-08T00:11:19.824Z,25.02
2022-12-08T00:13:46.560Z,24.77
2022-12-08T00:16:13.176Z,25.65
2022-12-08T00:18:39.629Z,24.80
2022-12-08T00:21:06.887Z,25.30
2022-12-08T00:23:33.274Z,25.17
2022-12-08T00:26:06.409Z,22.95
2022-12-08T00:28:33.899Z,22.40
2022-12-08T00:31:00.672Z,24.40
2022-12-08T00:33:30.148Z,24.83
2022-12-08T00:35:56.687Z,24.45
2022-12-08T00:38:23.080Z,25.63
2022-12-08T00:40:49.490Z,25.55
2022-12-08T00:43:15.863Z,25.88
2022-12-08T00:45:43.001Z,22.42
2022-12-08T00:48:09.531Z,21.67
2022-12-08T00:50:35.930Z,25.77
2022-12-08T00:53:02.752Z,25.00
2022-12-08T00:55:29.219Z,23.17
2022-12-08T00:57:55.807Z,22.23
2022-12-08T01:00:22.424Z,21.70
2022-12-08T01:02:49.155Z,19.27
2022-12-08T01:05:15.646Z,22.98
2022-12-08T01:07:42.288Z,21.70
2022-12-08T01:10:08.979Z,21.63
2022-12-08T01:12:35.450Z,21.85
2022-12-08T01:15:02.801Z,19.38
2022-12-08T01:17:30.235Z,22.20
2022-12-08T01:19:56.641Z,24.50
2022-12-08T01:22:23.020Z,22.73
2022-12-08T01:24:49.429Z,26.17
2022-12-08T01:27:16.257Z,23.27
2022-12-08T01:29:42.662Z,23.08
2022-12-08T01:32:09.477Z,24.95
2022-12-08T01:34:35.856Z,26.30
2022-12-08T01:37:02.258Z,25.00
2022-12-08T01:39:28.788Z,26.20
2022-12-08T01:41:55.157Z,25.77
2022-12-08T01:44:21.468Z,28.08
2022-12-08T01:46:50.680Z,26.60
2022-12-08T01:49:24.710Z,27.13
2022-12-08T01:51:57.132Z,26.63
2022-12-08T01:54:25.951Z,30.27
2022-12-08T01:57:07.460Z,28.65
2022-12-08T01:59:37.655Z,30.52
2022-12-08T02:02:04.157Z,32.05
2022-12-08T02:04:30.821Z,28.33
2022-12-08T02:06:57.999Z,30.23
2022-12-08T02:09:24.424Z,31.08
2022-12-08T02:11:51.480Z,32.97
2022-12-08T02:14:17.934Z,30.55
2022-12-08T02:16:50.971Z,32.10
2022-12-08T02:19:40.703Z,33.38
2022-12-08T02:22:09.462Z,31.95
2022-12-08T02:24:48.281Z,30.38
2022-12-08T02:27:33.867Z,32.10
2022-12-08T02:30:03.923Z,31.90
2022-12-08T02:32:58.770Z,34.03
2022-12-08T02:35:30.790Z,33.40
2022-12-08T02:38:25.960Z,35.60
2022-12-08T02:41:18.459Z,34.55
2022-12-08T02:43:48.238Z,35.55
2022-12-08T02:46:19.831Z,33.67
2022-12-08T02:48:46.914Z,39.17
2022-12-08T02:51:13.524Z,34.30
2022-12-08T02:53:40.532Z,33.60
2022-12-08T02:56:25.123Z,33.60
2022-12-08T02:59:18.196Z,35.53
2022-12-08T03:02:03.384Z,34.00
2022-12-08T03:04:49.645Z,37.50
2022-12-08T03:07:26.809Z,36.08
2022-12-08T03:10:28.643Z,37.85
2022-12-08T03:13:17.673Z,34.95
2022-12-08T03:15:47.951Z,36.75
2022-12-08T03:18:16.736Z,30.77
2022-12-08T03:20:45.167Z,34.97
2022-12-08T03:23:13.099Z,37.67
2022-12-08T03:25:44.032Z,37.72
2022-12-08T03:28:10.822Z,32.58
2022-12-08T03:30:39.332Z,39.05
2022-12-08T03:33:29.021Z,38.13
2022-12-08T03:35:55.764Z,34.58
2022-12-08T03:38:22.480Z,36.03
2022-12-08T03:41:08.874Z,34.60
2022-12-08T03:43:35.420Z,37.10
2022-12-08T03:46:02.094Z,35.17
2022-12-08T03:48:28.720Z,36.72
2022-12-08T03:50:55.149Z,33.17
2022-12-08T03:53:21.535Z,34.75
2022-12-08T03:55:48.074Z,37.00
2022-12-08T03:58:14.499Z,34.60
2022-12-08T04:00:41.253Z,36.28
2022-12-08T04:03:07.914Z,36.20
2022-12-08T04:05:34.341Z,33.03
2022-12-08T04:08:01.135Z,35.33
2022-12-08T04:10:28.056Z,34.58
2022-12-08T04:12:54.432Z,34.13
2022-12-08T04:15:20.865Z,35.30
2022-12-08T04:17:47.387Z,32.97
2022-12-08T04:20:13.839Z,29.65
2022-12-08T04:22:40.216Z,32.22
2022-12-08T04:25:07.232Z,33.15
2022-12-08T04:27:33.606Z,32.70
2022-12-08T04:30:00.035Z,32.47
2022-12-08T04:32:26.485Z,29.63
2022-12-08T04:34:52.846Z,31.10
2022-12-08T04:37:19.300Z,30.23
2022-12-08T04:39:45.701Z,33.65
2022-12-08T04:42:12.085Z,36.00
2022-12-08T04:44:38.467Z,32.95
2022-12-08T04:47:04.998Z,32.70
2022-12-08T04:49:31.730Z,28.80
2022-12-08T04:51:58.155Z,32.00
2022-12-08T04:54:24.549Z,29.33
2022-12-08T04:56:50.942Z,32.10
2022-12-08T04:59:17.354Z,27.85
2022-12-08T05:01:43.886Z,30.30
2022-12-08T05:04:11.741Z,28.38
2022-12-08T05:06:38.101Z,25.73
2022-12-08T05:09:04.535Z,26.13
2022-12-08T05:11:30.935Z,26.25
2022-12-08T05:13:57.314Z,28.50
2022-12-08T05:16:23.796Z,31.60
2022-12-08T05:18:50.250Z,29.80
2022-12-08T05:21:16.639Z,26.17
2022-12-08T05:23:43.386Z,24.75
2022-12-08T05:26:09.766Z,25.95
2022-12-08T05:28:44.074Z,26.30
2022-12-08T05:31:15.719Z,27.08
2022-12-08T05:33:43.045Z,26.10
2022-12-08T05:36:11.342Z,24.00
2022-12-08T05:38:37.930Z,23.90
2022-12-08T05:41:06.280Z,23.10
2022-12-08T05:43:32.682Z,25.73
2022-12-08T05:45:59.661Z,22.40
2022-12-08T05:48:26.239Z,23.33
2022-12-08T05:50:53.041Z,21.25
2022-12-08T05:53:20.562Z,23.77
2022-12-08T05:55:47.553Z,21.60
2022-12-08T05:58:16.357Z,21.55
2022-12-08T06:00:42.941Z,17.17
2022-12-08T06:03:11.850Z,16.23
2022-12-08T06:05:38.473Z,17.70
2022-12-08T06:08:05.072Z,18.85
2022-12-08T06:10:31.549Z,18.40
2022-12-08T06:12:59.400Z,19.08
2022-12-08T06:15:26.174Z,18.92
2022-12-08T06:17:52.558Z,20.92
2022-12-08T06:20:18.936Z,20.70
2022-12-08T06:22:45.653Z,23.13
2022-12-08T06:25:12.021Z,20.83
2022-12-08T06:27:38.471Z,20.02
2022-12-08T06:30:06.099Z,22.88
2022-12-08T06:32:32.669Z,21.48
2022-12-08T06:34:59.071Z,21.73
2022-12-08T06:37:25.478Z,19.65
2022-12-08T06:39:51.928Z,20.48
2022-12-08T06:42:36.989Z,21.17
2022-12-08T06:45:03.972Z,23.38
2022-12-08T06:47:30.508Z,18.90
2022-12-08T06:49:56.917Z,21.13
2022-12-08T06:52:23.300Z,18.80
2022-12-08T06:54:49.663Z,20.50
2022-12-08T06:57:16.250Z,18.13
2022-12-08T06:59:45.162Z,19.35
2022-12-08T07:02:11.756Z,19.42
2022-12-08T07:04:38.188Z,19.75
2022-12-08T07:07:04.565Z,17.40
2022-12-08T07:09:30.984Z,17.35
2022-12-08T07:11:57.453Z,17.58
2022-12-08T07:14:24.819Z,17.70
2022-12-08T07:17:07.251Z,17.15
2022-12-08T07:19:36.030Z,17.27
2022-12-08T07:22:02.411Z,20.80
2022-12-08T07:24:28.849Z,18.33
2022-12-08T07:26:55.207Z,18.83
2022-12-08T07:29:26.044Z,20.33
2022-12-08T07:31:52.805Z,18.15
2022-12-08T07:34:24.473Z,23.38
2022-12-08T07:36:50.872Z,22.13
2022-12-08T07:39:18.733Z,23.05
2022-12-08T07:41:45.174Z,23.38
2022-12-08T07:44:13.054Z,20.45
2022-12-08T07:46:39.508Z,17.52
2022-12-08T07:49:08.688Z,19.08
2022-12-08T07:51:48.879Z,18.60
2022-12-08T07:54:15.385Z,16.50
2022-12-08T07:56:41.788Z,18.13
2022-12-08T07:59:08.258Z,17.88
2022-12-08T08:01:35.072Z,18.13
2022-12-08T08:04:05.353Z,17.38
2022-12-08T08:06:33.121Z,18.20
2022-12-08T08:08:59.771Z,14.77
2022-12-08T08:11:26.347Z,11.45
2022-12-08T08:13:53.275Z,14.18
2022-12-08T08:16:20.564Z,15.27
2022-12-08T08:18:48.968Z,15.43
2022-12-08T08:21:44.368Z,18.02
2022-12-08T08:24:09.283Z,14.10
2022-12-08T08:26:38.767Z,13.98
2022-12-08T08:29:10.683Z,17.20
2022-12-08T08:31:37.332Z,17.88
2022-12-08T08:34:06.333Z,16.95
2022-12-08T08:36:33.153Z,15.25
2022-12-08T08:39:02.876Z,15.23
2022-12-08T08:41:29.441Z,17.90
2022-12-08T08:44:07.392Z,17.15
2022-12-08T08:46:34.323Z,17.25
2022-12-08T08:49:01.943Z,15.38
2022-12-08T08:51:28.732Z,14.95
2022-12-08T08:53:55.321Z,13.13
2022-12-08T08:56:23.477Z,14.65
2022-12-08T08:58:51.505Z,14.55
2022-12-08T09:01:33.159Z,13.48
2022-12-08T09:04:05.191Z,12.95
2022-12-08T09:06:32.364Z,15.05
2022-12-08T09:08:59.346Z,16.17
2022-12-08T09:11:25.819Z,12.52
2022-12-08T09:13:54.334Z,14.27
2022-12-08T09:16:24.623Z,14.18
2022-12-08T09:18:51.352Z,14.32
2022-12-08T09:21:29.917Z,14.13
2022-12-08T09:23:57.945Z,15.38
2022-12-08T09:26:25.721Z,14.60
2022-12-08T09:28:53.412Z,15.85
2022-12-08T09:31:21.332Z,15.98
2022-12-08T09:33:48.951Z,15.20
2022-12-08T09:36:15.499Z,18.83
2022-12-08T09:38:42.197Z,21.67
2022-12-08T09:41:24.470Z,22.55
2022-12-08T09:44:28.782Z,20.88
2022-12-08T09:46:55.467Z,20.52
2022-12-08T09:49:25.178Z,21.23
2022-12-08T09:51:51.597Z,19.20
2022-12-08T09:54:29.449Z,23.13
2022-12-08T09:56:59.479Z,16.67
2022-12-08T09:59:34.469Z,22.05
2022-12-08T10:02:02.317Z,22.60
2022-12-08T10:04:32.473Z,21.02
2022-12-08T10:07:18.427Z,24.35
2022-12-08T10:09:57.016Z,22.02
2022-12-08T10:12:30.704Z,23.23
2022-12-08T10:15:09.379Z,18.95
2022-12-08T10:17:40.027Z,24.08
2022-12-08T10:20:16.577Z,22.63
2022-12-08T10:22:45.094Z,23.05
2022-12-08T10:25:22.004Z,22.42
2022-12-08T10:27:50.120Z,20.77
2022-12-08T10:30:18.973Z,19.95
2022-12-08T10:32:48.168Z,20.98
2022-12-08T10:35:16.662Z,22.33
2022-12-08T10:37:56.114Z,20.98
2022-12-08T10:40:23.084Z,16.58
2022-12-08T10:42:52.779Z,21.58
2022-12-08T10:45:25.070Z,22.25
2022-12-08T10:48:01.498Z,21.73
2022-12-08T10:50:36.839Z,22.27
2022-12-08T10:53:09.161Z,20.15
2022-12-08T10:55:45.612Z,21.50
2022-12-08T10:58:24.196Z,23.52
2022-12-08T11:00:53.443Z,24.85
2022-12-08T11:03:29.228Z,23.88
2022-12-08T11:05:57.526Z,25.33
2022-12-08T11:08:24.704Z,24.50
2022-12-08T11:10:51.436Z,24.85
2022-12-08T11:13:27.184Z,38.05
2022-12-08T11:15:55.226Z,30.02
2022-12-08T11:18:22.795Z,34.72
2022-12-08T11:21:06.116Z,26.63
2022-12-08T11:23:35.915Z,28.05
2022-12-08T11:26:12.604Z,25.95
2022-12-08T11:28:39.249Z,27.63
2022-12-08T11:31:28.586Z,27.15
2022-12-08T11:33:55.967Z,28.80
2022-12-08T11:36:25.036Z,26.52
2022-12-08T11:38:56.280Z,25.25
2022-12-08T11:41:25.520Z,25.38
2022-12-08T11:44:10.730Z,25.55
2022-12-08T11:46:43.154Z,26.85
2022-12-08T11:49:10.983Z,28.25
2022-12-08T11:51:40.564Z,26.63
2022-12-08T11:54:36.624Z,25.95
2022-12-08T11:57:05.665Z,27.92
2022-12-08T11:59:35.916Z,26.63
2022-12-08T12:02:04.531Z,26.88
2022-12-08T12:04:37.227Z,28.00
2022-12-08T12:07:26.590Z,25.52
2022-12-08T12:10:10.940Z,23.98
2022-12-08T12:13:04.588Z,21.27
2022-12-08T12:15:30.905Z,22.27
2022-12-08T12:18:04.282Z,21.13
2022-12-08T12:20:36.338Z,19.70
2022-12-08T12:23:17.225Z,17.20
2022-12-08T12:25:53.830Z,16.10
2022-12-08T12:28:20.383Z,16.02
2022-12-08T12:31:03.040Z,17.63
2022-12-08T12:33:33.142Z,17.85
2022-12-08T12:36:04.026Z,17.20
2022-12-08T12:38:53.051Z,16.73
2022-12-08T12:41:26.339Z,15.32
2022-12-08T12:44:18.970Z,14.27
2022-12-08T12:46:48.735Z,14.43
2022-12-08T12:49:40.129Z,12.95
2022-12-08T12:52:15.212Z,13.30
2022-12-08T12:55:05.561Z,12.20
2022-12-08T12:57:52.695Z,12.07
2022-12-08T13:00:22.202Z,13.48
2022-12-08T13:02:50.009Z,12.88
2022-12-08T13:05:18.516Z,13.85
2022-12-08T13:07:52.429Z,12.60
2022-12-08T13:10:27.906Z,12.60
2022-12-08T13:13:16.295Z,12.68
2022-12-08T13:15:56.984Z,13.15
2022-12-08T13:18:36.398Z,10.20
2022-12-08T13:21:14.960Z,10.70
2022-12-08T13:23:46.867Z,11.68
2022-12-08T13:26:18.232Z,12.02
2022-12-08T13:29:01.088Z,10.68
2022-12-08T13:31:37.474Z,10.85
2022-12-08T13:34:14.384Z,12.70
2022-12-08T13:36:49.699Z,12.50
2022-12-08T13:39:29.057Z,11.93
2022-12-08T13:42:02.679Z,13.55
2022-12-08T13:47:34.998Z,11.85
2022-12-08T13:58:46.941Z,15.65
2022-12-08T14:01:22.239Z,16.65
2022-12-08T14:04:22.148Z,17.73
2022-12-08T14:06:39.490Z,19.58
2022-12-08T14:09:12.082Z,19.27
2022-12-08T14:11:41.838Z,22.42
2022-12-08T14:14:45.955Z,19.33
2022-12-08T14:17:11.364Z,23.77
2022-12-08T14:19:38.212Z,25.48
2022-12-08T14:22:18.068Z,22.20
2022-12-08T14:24:52.931Z,25.10
2022-12-08T14:27:24.452Z,23.52
2022-12-08T14:29:56.062Z,23.90
2022-12-08T14:32:27.319Z,25.80
2022-12-08T14:35:02.832Z,26.52
2022-12-08T14:37:32.284Z,26.45
2022-12-08T14:40:02.009Z,25.77
2022-12-08T14:42:29.576Z,26.73
2022-12-08T14:45:02.044Z,27.30
2022-12-08T14:47:30.626Z,27.27
2022-12-08T14:49:57.981Z,27.70
2022-12-08T14:52:24.838Z,27.65
2022-12-08T14:54:51.995Z,26.67
2022-12-08T14:57:18.387Z,24.95
2022-12-08T14:59:46.093Z,27.20
2022-12-08T15:02:12.560Z,26.55
2022-12-08T15:04:44.339Z,25.90
2022-12-08T15:07:17.380Z,24.30
2022-12-08T15:09:46.345Z,21.13
2022-12-08T15:12:12.664Z,23.05
2022-12-08T15:14:42.374Z,24.13
2022-12-08T15:17:31.961Z,25.15
2022-12-08T15:19:59.834Z,25.13
2022-12-08T15:22:29.020Z,26.15
2022-12-08T15:24:56.002Z,25.10
2022-12-08T15:27:23.958Z,24.13
2022-12-08T15:29:50.684Z,24.33
2022-12-08T15:32:19.459Z,23.17
2022-12-08T15:34:46.175Z,23.77
2022-12-08T15:37:21.051Z,20.77
2022-12-08T15:39:47.950Z,22.35
2022-12-08T15:42:14.379Z,21.75
2022-12-08T15:44:41.506Z,20.98
2022-12-08T15:47:22.869Z,24.20
2022-12-08T15:49:51.361Z,24.15
2022-12-08T15:52:24.241Z,25.10
2022-12-08T15:54:50.785Z,23.42
2022-12-08T15:57:25.012Z,26.35
2022-12-08T15:59:56.408Z,26.15
2022-12-08T16:02:23.838Z,24.73
2022-12-08T16:07:38.399Z,25.02
2022-12-08T16:10:06.710Z,25.90
2022-12-08T16:15:59.316Z,25.95
2022-12-08T16:18:29.635Z,27.52
2022-12-08T16:21:10.275Z,28.75
2022-12-08T16:23:44.611Z,28.33
2022-12-08T16:26:35.516Z,31.42
2022-12-08T16:28:59.993Z,30.58
2022-12-08T16:31:26.507Z,32.15
2022-12-08T16:33:53.058Z,33.45
2022-12-08T16:36:19.479Z,30.90
2022-12-08T16:38:45.907Z,33.17
2022-12-08T16:41:33.012Z,32.83
2022-12-08T16:44:05.289Z,34.25
2022-12-08T16:46:32.080Z,35.95
2022-12-08T16:48:59.107Z,32.28
2022-12-08T16:51:30.802Z,32.38
2022-12-08T16:53:58.236Z,33.90
2022-12-08T16:56:32.647Z,34.20
2022-12-08T16:59:18.189Z,32.70
2022-12-08T17:01:44.727Z,34.13
2022-12-08T17:06:58.230Z,34.40
2022-12-08T17:09:25.868Z,32.75
2022-12-08T17:11:52.325Z,36.47
2022-12-08T17:14:18.938Z,33.85
2022-12-08T17:16:45.658Z,35.92
2022-12-08T17:19:13.172Z,34.65
2022-12-08T17:21:39.618Z,34.65
2022-12-08T17:24:06.158Z,31.35
2022-12-08T17:26:32.844Z,34.80
2022-12-08T17:29:00.944Z,31.25
2022-12-08T17:31:30.363Z,34.33
2022-12-08T17:34:08.194Z,32.10
2022-12-08T17:36:34.691Z,33.63
2022-12-08T17:39:01.217Z,33.35
2022-12-08T17:41:28.852Z,33.33
2022-12-08T17:43:55.730Z,35.65
2022-12-08T17:46:23.195Z,32.88
2022-12-08T17:48:49.767Z,32.20
2022-12-08T17:51:16.529Z,35.10
2022-12-08T17:53:42.970Z,35.80
2022-12-08T17:56:18.027Z,34.50
2022-12-08T17:58:47.581Z,32.30
2022-12-08T18:01:17.780Z,34.60
2022-12-08T18:03:44.305Z,34.67
2022-12-08T18:06:12.362Z,36.35
2022-12-08T18:08:39.523Z,36.33
2022-12-08T18:11:12.345Z,37.70
2022-12-08T18:13:47.005Z,37.35
2022-12-08T18:16:22.854Z,33.05
2022-12-08T18:18:56.966Z,35.65
2022-12-08T18:21:23.960Z,34.95
2022-12-08T18:23:55.979Z,34.15
2022-12-08T18:26:24.542Z,37.40
2022-12-08T18:29:11.327Z,35.75
2022-12-08T18:31:37.801Z,34.95
2022-12-08T18:34:04.234Z,38.30
2022-12-08T18:36:39.623Z,40.30
2022-12-08T18:39:10.779Z,35.88
2022-12-08T18:41:37.563Z,39.22
2022-12-08T18:44:04.170Z,37.35
2022-12-08T18:46:30.729Z,37.33
2022-12-08T18:48:57.989Z,36.22
2022-12-08T18:51:24.655Z,38.30
2022-12-08T18:53:51.877Z,37.63
2022-12-08T18:56:27.537Z,41.90
2022-12-08T18:58:59.847Z,41.28
2022-12-08T19:01:29.730Z,39.28
2022-12-08T19:04:26.862Z,44.67
2022-12-08T19:06:45.533Z,43.67
2022-12-08T19:09:12.581Z,40.97
2022-12-08T19:11:39.017Z,41.22
2022-12-08T19:14:05.532Z,42.47
2022-12-08T19:16:31.986Z,41.03
2022-12-08T19:18:58.490Z,39.97
2022-12-08T19:21:25.282Z,38.97
2022-12-08T19:23:52.699Z,40.40
2022-12-08T19:26:19.648Z,39.30
2022-12-08T19:28:46.056Z,40.30
2022-12-08T19:31:12.527Z,39.47
2022-12-08T19:33:39.165Z,37.97
2022-12-08T19:36:10.342Z,38.63
2022-12-08T19:38:56.701Z,36.67
2022-12-08T19:41:42.410Z,37.25
2022-12-08T19:44:47.616Z,33.78
2022-12-08T19:47:14.696Z,35.42
2022-12-08T19:49:41.303Z,36.72
2022-12-08T19:52:07.759Z,35.55
2022-12-08T19:54:34.556Z,34.33
2022-12-08T19:57:01.773Z,32.97
2022-12-08T19:59:29.985Z,34.72
2022-12-08T20:01:57.687Z,35.83
2022-12-08T20:04:25.151Z,36.15
2022-12-08T20:06:54.863Z,34.95
2022-12-08T20:09:22.049Z,34.08
2022-12-08T20:11:50.544Z,39.78
2022-12-08T20:14:18.181Z,41.72
2022-12-08T20:16:44.672Z,38.53
2022-12-08T20:19:11.189Z,42.55
2022-12-08T20:21:39.410Z,39.88
2022-12-08T20:24:06.351Z,41.90
2022-12-08T20:26:35.078Z,44.08
2022-12-08T20:29:01.482Z,40.78
2022-12-08T20:31:29.392Z,42.08
2022-12-08T20:33:56.156Z,41.95
2022-12-08T20:36:22.946Z,42.60
2022-12-08T20:38:51.086Z,39.63
2022-12-08T20:41:18.703Z,39.25
2022-12-08T20:43:46.755Z,42.03
2022-12-08T20:46:15.130Z,45.08
2022-12-08T20:48:43.343Z,44.55
2022-12-08T20:51:17.739Z,42.47
2022-12-08T20:53:45.066Z,40.38
2022-12-08T20:56:20.640Z,42.17
2022-12-08T20:58:48.580Z,40.53
2022-12-08T21:01:18.765Z,41.95
2022-12-08T21:03:47.281Z,45.03
2022-12-08T21:06:15.481Z,44.13
2022-12-08T21:08:42.346Z,41.78
2022-12-08T21:11:09.509Z,45.63
2022-12-08T21:13:39.800Z,44.05
2022-12-08T21:16:09.468Z,49.22
2022-12-08T21:18:39.755Z,43.00
2022-12-08T21:21:09.198Z,48.22
2022-12-08T21:23:35.935Z,51.17
2022-12-08T21:26:03.201Z,54.17
2022-12-08T21:28:29.792Z,55.15
2022-12-08T21:30:56.412Z,55.97
2022-12-08T21:33:22.950Z,50.78
2022-12-08T21:35:49.659Z,51.80
2022-12-08T21:38:16.134Z,48.50
2022-12-08T21:40:45.173Z,49.78
2022-12-08T21:43:15.959Z,46.65
2022-12-08T21:45:47.641Z,49.00
2022-12-08T21:48:23.068Z,47.53
2022-12-08T21:51:04.005Z,42.33
2022-12-08T21:53:33.918Z,44.95
2022-12-08T21:56:30.840Z,42.30
2022-12-08T21:58:58.593Z,46.13
2022-12-08T22:01:25.299Z,44.63
2022-12-08T22:03:51.870Z,43.97
2022-12-08T22:06:18.450Z,44.55
2022-12-08T22:08:44.960Z,43.25
2022-12-08T22:11:14.595Z,42.50
2022-12-08T22:13:41.740Z,39.80
2022-12-08T22:16:11.102Z,39.70
2022-12-08T22:18:37.941Z,38.60
2022-12-08T22:21:10.239Z,40.10
2022-12-08T22:23:37.001Z,42.13
2022-12-08T22:26:04.436Z,40.22
2022-12-08T22:28:33.515Z,41.60
2022-12-08T22:31:00.376Z,39.65
2022-12-08T22:33:29.755Z,43.38
2022-12-08T22:36:06.275Z,38.72
2022-12-08T22:38:36.403Z,43.97
2022-12-08T22:41:07.204Z,42.92
2022-12-08T22:43:34.002Z,40.75
2022-12-08T22:46:00.678Z,40.85
2022-12-08T22:48:27.377Z,39.70
2022-12-08T22:51:03.270Z,41.92
2022-12-08T22:53:32.069Z,40.50
2022-12-08T22:56:16.004Z,38.75
2022-12-08T22:58:42.754Z,39.97
2022-12-08T23:01:16.426Z,37.65
2022-12-08T23:03:43.105Z,38.05
2022-12-08T23:06:29.796Z,38.38
2022-12-08T23:08:57.182Z,37.95
2022-12-08T23:11:28.831Z,39.30
2022-12-08T23:13:56.362Z,38.40
2022-12-08T23:16:23.157Z,37.72
2022-12-08T23:18:49.662Z,39.38
2022-12-08T23:21:22.084Z,39.38
2022-12-08T23:23:48.645Z,39.15
2022-12-08T23:26:26.705Z,38.05
2022-12-08T23:28:53.671Z,36.53
2022-12-08T23:31:20.819Z,34.60
2022-12-08T23:33:50.749Z,38.60
2022-12-08T23:36:18.858Z,37.78
2022-12-08T23:38:45.605Z,38.97
2022-12-08T23:41:14.260Z,39.20
2022-12-08T23:44:09.105Z,39.45
2022-12-08T23:46:35.735Z,35.65
2022-12-08T23:49:02.336Z,38.67
2022-12-08T23:51:31.990Z,38.90
2022-12-08T23:54:01.724Z,40.67
2022-12-08T23:56:30.402Z,37.47
2022-12-08T23:58:57.196Z,39.40
